< < Back
Terminal Aerodrome Forecast


Current Version              Previous Versions:   1  2  3  4  5  6  7  8  9  

Terminal Aerodrome Forecast

051
FTUS44 KMRX 171313 AAA
TAFTYS
TAF AMD
KTYS 171313Z 1713/1812 36006KT P6SM BKN020
     FM171430 01005KT P6SM SCT030
     FM171700 VRB04KT P6SM SCT035
     FM180100 02003KT P6SM SCT120=

Latest METAR

714
SAUS80 KWBC 172100 RRB
MTRTYS
METAR KTYS 172053Z 27005KT 10SM FEW040 SCT250 25/10 A2993 RMK AO2 SLP127
T02500100 55014


USA.gov is the U.S. government's official web portal to all federal, state and local government web resources and services.